createdAt,value
2018-06-13T00:01:35.029Z,13.00
2018-06-13T00:04:03.586Z,13.00
2018-06-13T00:06:32.009Z,12.90
2018-06-13T00:09:00.485Z,12.90
2018-06-13T00:11:28.966Z,12.80
2018-06-13T00:13:57.444Z,12.60
2018-06-13T00:16:25.912Z,12.70
2018-06-13T00:18:54.861Z,12.60
2018-06-13T00:21:23.348Z,12.50
2018-06-13T00:23:51.868Z,12.50
2018-06-13T00:26:20.358Z,12.40
2018-06-13T00:28:49.333Z,12.30
2018-06-13T00:31:17.839Z,12.30
2018-06-13T00:33:46.325Z,12.30
2018-06-13T00:36:14.993Z,12.40
2018-06-13T00:38:43.507Z,12.40
2018-06-13T00:41:11.945Z,12.30
2018-06-13T00:43:40.390Z,12.30
2018-06-13T00:46:08.852Z,12.40
2018-06-13T00:48:37.284Z,12.30
2018-06-13T00:51:05.685Z,12.30
2018-06-13T00:53:34.099Z,12.20
2018-06-13T00:56:13.760Z,12.10
2018-06-13T00:58:42.306Z,12.10
2018-06-13T01:01:10.740Z,12.00
2018-06-13T01:03:39.185Z,12.10
2018-06-13T01:06:07.589Z,12.30
2018-06-13T01:08:35.995Z,12.30
2018-06-13T01:11:04.466Z,12.40
2018-06-13T01:13:32.944Z,12.30
2018-06-13T01:16:01.369Z,12.30
2018-06-13T01:18:29.952Z,12.30
2018-06-13T01:20:58.349Z,12.40
2018-06-13T01:23:26.816Z,12.40
2018-06-13T01:25:55.237Z,12.30
2018-06-13T01:28:23.880Z,12.30
2018-06-13T01:30:52.284Z,12.10
2018-06-13T01:33:20.697Z,11.90
2018-06-13T01:35:49.153Z,11.80
2018-06-13T01:38:17.635Z,11.70
2018-06-13T01:40:46.170Z,11.60
2018-06-13T01:43:14.639Z,11.50
2018-06-13T01:45:43.173Z,11.50
2018-06-13T01:48:11.649Z,11.50
2018-06-13T01:51:00.456Z,11.50
2018-06-13T01:53:30.039Z,11.60
2018-06-13T01:55:58.509Z,11.60
2018-06-13T01:58:26.919Z,11.60
2018-06-13T02:00:55.362Z,11.60
2018-06-13T02:03:23.783Z,11.70
2018-06-13T02:05:52.420Z,11.70
2018-06-13T02:08:20.863Z,11.70
2018-06-13T02:10:49.345Z,11.70
2018-06-13T02:13:17.807Z,11.70
2018-06-13T02:15:46.375Z,11.80
2018-06-13T02:18:14.860Z,11.80
2018-06-13T02:20:43.326Z,11.80
2018-06-13T02:23:11.780Z,11.80
2018-06-13T02:25:40.256Z,11.90
2018-06-13T02:28:08.765Z,11.80
2018-06-13T02:30:37.178Z,11.90
2018-06-13T02:33:05.674Z,11.80
2018-06-13T02:35:34.123Z,11.90
2018-06-13T02:38:02.601Z,11.90
2018-06-13T02:40:31.056Z,11.80
2018-06-13T02:42:59.524Z,11.80
2018-06-13T02:45:28.059Z,11.80
2018-06-13T02:47:56.508Z,11.70
2018-06-13T02:50:24.933Z,11.70
2018-06-13T02:52:53.472Z,11.80
2018-06-13T02:55:21.877Z,11.80
2018-06-13T02:57:50.316Z,11.70
2018-06-13T03:00:18.820Z,11.80
2018-06-13T03:02:47.300Z,11.80
2018-06-13T03:05:15.800Z,11.90
2018-06-13T03:07:44.354Z,11.90
2018-06-13T03:10:14.096Z,12.00
2018-06-13T03:12:42.565Z,12.10
2018-06-13T03:15:11.033Z,12.00
2018-06-13T03:17:39.506Z,12.10
2018-06-13T03:20:07.960Z,12.00
2018-06-13T03:22:36.413Z,12.10
2018-06-13T03:25:04.900Z,12.10
2018-06-13T03:27:33.374Z,12.00
2018-06-13T03:30:01.903Z,12.10
2018-06-13T03:32:30.420Z,12.10
2018-06-13T03:34:58.923Z,12.10
2018-06-13T03:37:27.421Z,12.00
2018-06-13T03:39:55.856Z,12.00
2018-06-13T03:42:24.302Z,12.00
2018-06-13T03:44:52.783Z,12.00
2018-06-13T03:47:21.383Z,12.20
2018-06-13T03:49:49.999Z,12.20
2018-06-13T03:52:18.430Z,12.00
2018-06-13T03:54:46.941Z,12.00
2018-06-13T03:57:15.416Z,12.20
2018-06-13T03:59:43.926Z,12.10
2018-06-13T04:02:12.349Z,12.20
2018-06-13T04:04:40.881Z,12.20
2018-06-13T04:07:09.285Z,12.30
2018-06-13T04:09:37.930Z,12.10
2018-06-13T04:12:06.351Z,12.20
2018-06-13T04:14:34.760Z,12.20
2018-06-13T04:17:03.245Z,12.20
2018-06-13T04:19:31.705Z,12.20
2018-06-13T04:22:00.133Z,12.20
2018-06-13T04:24:28.566Z,12.20
2018-06-13T04:26:56.980Z,12.20
2018-06-13T04:29:25.413Z,12.20
2018-06-13T04:31:54.023Z,12.40
2018-06-13T04:34:22.519Z,12.40
2018-06-13T04:36:50.978Z,12.40
2018-06-13T04:39:19.449Z,12.50
2018-06-13T04:41:47.953Z,12.50
2018-06-13T04:44:16.449Z,12.60
2018-06-13T04:46:44.997Z,12.80
2018-06-13T04:49:13.443Z,12.90
2018-06-13T04:54:10.072Z,13.10
2018-06-13T04:56:38.549Z,13.20
2018-06-13T04:59:07.131Z,13.30
2018-06-13T05:01:35.543Z,13.30
2018-06-13T05:04:04.048Z,13.60
2018-06-13T05:06:32.581Z,13.90
2018-06-13T05:09:01.008Z,14.20
2018-06-13T05:11:29.430Z,14.30
2018-06-13T05:13:57.925Z,14.50
2018-06-13T05:16:26.474Z,14.50
2018-06-13T05:18:54.998Z,14.40
2018-06-13T05:21:23.458Z,14.30
2018-06-13T05:23:51.898Z,15.00
2018-06-13T05:26:20.389Z,15.80
2018-06-13T05:28:48.886Z,16.50
2018-06-13T05:31:17.350Z,16.50
2018-06-13T05:33:45.965Z,15.50
2018-06-13T05:36:14.447Z,15.10
2018-06-13T05:38:42.961Z,15.00
2018-06-13T05:41:11.555Z,15.00
2018-06-13T05:43:40.043Z,14.60
2018-06-13T05:46:08.542Z,14.30
2018-06-13T05:48:36.966Z,14.10
2018-06-13T05:51:05.446Z,13.80
2018-06-13T05:53:33.929Z,13.80
2018-06-13T05:56:02.428Z,13.90
2018-06-13T05:58:30.976Z,13.80
2018-06-13T06:00:59.570Z,13.60
2018-06-13T06:03:28.059Z,13.60
2018-06-13T06:05:56.780Z,13.70
2018-06-13T06:08:25.207Z,13.60
2018-06-13T06:10:53.687Z,13.60
2018-06-13T06:13:22.116Z,13.70
2018-06-13T06:15:50.738Z,13.70
2018-06-13T06:18:19.300Z,13.90
2018-06-13T06:20:47.904Z,14.00
2018-06-13T06:23:16.291Z,13.80
2018-06-13T06:25:44.795Z,14.00
2018-06-13T06:28:13.224Z,14.10
2018-06-13T06:30:41.723Z,14.10
2018-06-13T06:33:10.178Z,14.20
2018-06-13T06:35:38.630Z,14.30
2018-06-13T06:38:07.072Z,14.60
2018-06-13T06:40:35.549Z,14.80
2018-06-13T06:43:04.016Z,15.00
2018-06-13T06:45:32.492Z,15.20
2018-06-13T06:48:00.917Z,15.20
2018-06-13T06:50:29.698Z,15.10
2018-06-13T06:52:58.126Z,15.00
2018-06-13T06:55:26.555Z,15.00
2018-06-13T06:57:55.897Z,15.30
2018-06-13T07:00:24.336Z,15.30
2018-06-13T07:02:53.226Z,15.40
2018-06-13T07:05:21.725Z,15.40
2018-06-13T07:07:50.150Z,15.70
2018-06-13T07:10:18.563Z,15.70
2018-06-13T07:12:46.962Z,15.70
2018-06-13T07:15:15.415Z,15.60
2018-06-13T07:20:11.964Z,15.60
2018-06-13T07:22:40.505Z,15.60
2018-06-13T07:25:09.012Z,15.80
2018-06-13T07:27:37.527Z,16.00
2018-06-13T07:30:06.114Z,16.10
2018-06-13T07:32:34.668Z,16.00
2018-06-13T07:35:03.130Z,15.80
2018-06-13T07:37:31.510Z,15.80
2018-06-13T07:39:59.956Z,15.70
2018-06-13T07:42:28.384Z,15.50
2018-06-13T07:44:57.113Z,15.40
2018-06-13T07:47:25.543Z,15.60
2018-06-13T07:49:54.077Z,15.70
2018-06-13T07:52:22.717Z,15.90
2018-06-13T07:54:51.137Z,16.10
2018-06-13T07:57:19.679Z,16.30
2018-06-13T07:59:48.112Z,16.30
2018-06-13T08:02:16.585Z,16.30
2018-06-13T08:04:44.992Z,16.50
2018-06-13T08:07:13.408Z,16.20
2018-06-13T08:09:42.948Z,15.90
2018-06-13T08:12:11.372Z,15.80
2018-06-13T08:14:39.911Z,15.70
2018-06-13T08:17:08.439Z,15.60
2018-06-13T08:19:36.851Z,16.10
2018-06-13T08:22:05.438Z,16.50
2018-06-13T08:24:45.162Z,16.90
2018-06-13T08:27:13.588Z,16.80
2018-06-13T08:29:42.075Z,16.40
2018-06-13T08:34:38.670Z,16.10
2018-06-13T08:37:07.131Z,16.00
2018-06-13T08:39:35.668Z,16.10
2018-06-13T08:42:04.228Z,16.30
2018-06-13T08:44:32.692Z,16.40
2018-06-13T08:47:01.167Z,16.50
2018-06-13T08:49:29.618Z,16.50
2018-06-13T08:54:26.327Z,17.00
2018-06-13T08:56:54.760Z,17.20
2018-06-13T08:59:23.245Z,17.00
2018-06-13T09:01:51.718Z,16.90
2018-06-13T09:04:20.196Z,17.10
2018-06-13T09:06:49.020Z,17.30
2018-06-13T09:09:17.492Z,17.30
2018-06-13T09:11:45.949Z,17.00
2018-06-13T09:14:14.384Z,17.40
2018-06-13T09:16:42.816Z,17.30
2018-06-13T09:19:11.277Z,17.30
2018-06-13T09:22:03.605Z,17.30
2018-06-13T09:24:32.036Z,17.60
2018-06-13T09:27:00.782Z,17.80
2018-06-13T09:29:29.269Z,17.40
2018-06-13T09:32:06.625Z,16.90
2018-06-13T09:34:35.101Z,16.60
2018-06-13T09:37:03.668Z,16.10
2018-06-13T09:39:32.126Z,15.70
2018-06-13T09:42:01.242Z,15.50
2018-06-13T09:44:30.396Z,15.30
2018-06-13T09:49:27.599Z,15.00
2018-06-13T09:51:56.045Z,15.20
2018-06-13T09:54:24.520Z,15.50
2018-06-13T09:56:52.992Z,15.80
2018-06-13T09:59:21.732Z,16.20
2018-06-13T10:01:55.658Z,16.30
2018-06-13T10:04:24.193Z,16.70
2018-06-13T10:06:52.740Z,17.40
2018-06-13T10:09:21.163Z,17.60
2018-06-13T10:11:49.664Z,17.40
2018-06-13T10:14:18.131Z,17.30
2018-06-13T10:16:46.564Z,16.90
2018-06-13T10:19:15.010Z,16.50
2018-06-13T10:21:43.529Z,16.50
2018-06-13T10:24:12.044Z,16.50
2018-06-13T10:26:40.559Z,16.60
2018-06-13T10:29:09.079Z,16.70
2018-06-13T10:31:37.485Z,17.00
2018-06-13T10:34:06.002Z,16.80
2018-06-13T10:36:34.440Z,17.60
2018-06-13T10:39:04.692Z,18.30
2018-06-13T10:41:33.168Z,18.30
2018-06-13T10:44:01.677Z,18.50
2018-06-13T10:46:30.186Z,18.70
2018-06-13T10:48:58.702Z,19.00
2018-06-13T10:51:27.204Z,19.40
2018-06-13T10:53:55.761Z,18.70
2018-06-13T10:56:24.345Z,18.70
2018-06-13T10:58:52.845Z,18.90
2018-06-13T11:01:21.456Z,19.50
2018-06-13T11:03:50.062Z,20.00
2018-06-13T11:06:18.696Z,20.70
2018-06-13T11:08:47.188Z,20.20
2018-06-13T11:11:15.781Z,20.60
2018-06-13T11:13:44.224Z,21.20
2018-06-13T11:16:12.662Z,21.70
2018-06-13T11:21:09.326Z,21.20
2018-06-13T11:23:37.814Z,20.90
2018-06-13T11:26:06.433Z,20.50
2018-06-13T11:28:35.108Z,20.10
2018-06-13T11:31:04.027Z,19.40
2018-06-13T11:33:32.689Z,18.80
2018-06-13T11:36:01.560Z,18.60
2018-06-13T11:38:30.079Z,18.30
2018-06-13T11:40:59.287Z,18.30
2018-06-13T11:43:27.890Z,18.30
2018-06-13T11:45:56.564Z,18.40
2018-06-13T11:48:25.052Z,18.40
2018-06-13T11:50:53.863Z,18.70
2018-06-13T11:53:22.298Z,17.80
2018-06-13T11:55:50.897Z,17.70
2018-06-13T11:58:19.477Z,17.50
2018-06-13T12:00:48.037Z,17.50
2018-06-13T12:03:16.589Z,17.30
2018-06-13T12:05:45.605Z,17.20
2018-06-13T12:08:14.128Z,17.10
2018-06-13T12:10:42.639Z,17.10
2018-06-13T12:13:11.362Z,17.20
2018-06-13T12:15:40.795Z,17.50
2018-06-13T12:18:09.790Z,17.40
2018-06-13T12:20:38.305Z,17.40
2018-06-13T12:23:07.164Z,17.50
2018-06-13T12:25:35.830Z,17.80
2018-06-13T12:28:04.386Z,18.20
2018-06-13T12:30:32.982Z,18.60
2018-06-13T12:33:01.498Z,18.80
2018-06-13T12:35:30.053Z,18.30
2018-06-13T12:37:58.493Z,18.40
2018-06-13T12:40:27.378Z,18.20
2018-06-13T12:42:56.522Z,18.60
2018-06-13T12:45:25.063Z,18.70
2018-06-13T12:47:53.522Z,18.50
2018-06-13T12:50:22.019Z,18.40
2018-06-13T12:52:50.527Z,18.40
2018-06-13T12:55:18.984Z,18.40
2018-06-13T12:57:47.611Z,18.40
2018-06-13T13:00:16.698Z,18.40
2018-06-13T13:02:45.243Z,18.00
2018-06-13T13:05:13.788Z,18.10
2018-06-13T13:07:43.243Z,18.20
2018-06-13T13:10:11.976Z,18.30
2018-06-13T13:12:40.524Z,18.60
2018-06-13T13:15:09.830Z,19.10
2018-06-13T13:17:38.653Z,19.60
2018-06-13T13:20:07.306Z,19.80
2018-06-13T13:22:36.348Z,19.90
2018-06-13T13:25:05.428Z,19.90
2018-06-13T13:27:33.888Z,20.00
2018-06-13T13:30:02.428Z,19.60
2018-06-13T13:32:31.221Z,19.70
2018-06-13T13:34:59.742Z,19.70
2018-06-13T13:37:28.540Z,19.50
2018-06-13T13:39:57.024Z,19.00
2018-06-13T13:42:25.555Z,19.30
2018-06-13T13:44:54.068Z,19.40
2018-06-13T13:47:22.585Z,19.40
2018-06-13T13:49:51.056Z,19.30
2018-06-13T13:54:47.657Z,19.20
2018-06-13T13:57:16.184Z,19.30
2018-06-13T13:59:44.669Z,19.80
2018-06-13T14:02:13.164Z,19.90
2018-06-13T14:04:41.640Z,19.70
2018-06-13T14:07:10.338Z,19.80
2018-06-13T14:09:38.744Z,20.00
2018-06-13T14:12:07.260Z,19.30
2018-06-13T14:14:35.708Z,18.80
2018-06-13T14:17:04.269Z,18.70
2018-06-13T14:19:32.825Z,18.20
2018-06-13T14:22:01.389Z,18.00
2018-06-13T14:24:29.944Z,17.80
2018-06-13T14:26:58.440Z,18.10
2018-06-13T14:29:26.848Z,18.40
2018-06-13T14:31:55.342Z,18.60
2018-06-13T14:34:23.804Z,18.80
2018-06-13T14:36:52.216Z,19.10
2018-06-13T14:39:20.735Z,19.00
2018-06-13T14:41:49.178Z,19.10
2018-06-13T14:44:17.632Z,19.10
2018-06-13T14:46:46.106Z,19.10
2018-06-13T14:49:14.560Z,18.80
2018-06-13T14:51:44.299Z,19.00
2018-06-13T14:54:13.129Z,19.00
2018-06-13T14:56:41.610Z,19.00
2018-06-13T14:59:10.057Z,19.30
2018-06-13T15:01:38.608Z,19.30
2018-06-13T15:04:07.087Z,18.80
2018-06-13T15:06:35.521Z,18.80
2018-06-13T15:09:05.994Z,18.70
2018-06-13T15:11:34.518Z,18.70
2018-06-13T15:14:02.991Z,18.70
2018-06-13T15:16:31.493Z,18.70
2018-06-13T15:19:00.144Z,18.90
2018-06-13T15:21:28.632Z,18.90
2018-06-13T15:23:57.256Z,18.90
2018-06-13T15:26:25.785Z,18.80
2018-06-13T15:28:54.312Z,18.80
2018-06-13T15:31:22.793Z,18.70
2018-06-13T15:33:51.313Z,19.00
2018-06-13T15:36:19.741Z,18.90
2018-06-13T15:38:48.249Z,19.10
2018-06-13T15:41:16.700Z,19.70
2018-06-13T15:43:45.154Z,19.40
2018-06-13T15:46:13.765Z,19.20
2018-06-13T15:48:42.193Z,19.00
2018-06-13T15:51:10.646Z,18.90
2018-06-13T15:53:39.188Z,19.10
2018-06-13T15:56:07.607Z,19.10
2018-06-13T15:58:36.076Z,19.20
2018-06-13T16:01:05.512Z,19.20
2018-06-13T16:03:34.009Z,19.20
2018-06-13T16:06:02.590Z,19.00
2018-06-13T16:08:31.010Z,18.90
2018-06-13T16:10:59.439Z,18.70
2018-06-13T16:13:27.927Z,18.50
2018-06-13T16:15:56.401Z,17.80
2018-06-13T16:18:24.992Z,17.60
2018-06-13T16:20:53.461Z,17.50
2018-06-13T16:23:21.930Z,17.40
2018-06-13T16:25:50.408Z,17.20
2018-06-13T16:28:18.919Z,17.30
2018-06-13T16:30:47.442Z,17.30
2018-06-13T16:33:16.198Z,17.40
2018-06-13T16:35:44.628Z,17.50
2018-06-13T16:38:13.064Z,17.70
2018-06-13T16:40:41.508Z,18.00
2018-06-13T16:43:10.012Z,17.90
2018-06-13T16:45:38.555Z,17.80
2018-06-13T16:48:07.011Z,17.70
2018-06-13T16:51:49.678Z,17.70
2018-06-13T16:54:29.328Z,17.50
2018-06-13T16:56:57.788Z,17.60
2018-06-13T16:59:26.209Z,17.50
2018-06-13T17:01:54.660Z,17.60
2018-06-13T17:04:23.184Z,17.60
2018-06-13T17:06:52.373Z,17.70
2018-06-13T17:09:20.983Z,17.80
2018-06-13T17:11:49.877Z,17.90
2018-06-13T17:14:19.074Z,17.90
2018-06-13T17:16:47.505Z,17.80
2018-06-13T17:19:16.124Z,17.90
2018-06-13T17:21:44.668Z,17.80
2018-06-13T17:24:13.277Z,17.80
2018-06-13T17:26:41.759Z,17.80
2018-06-13T17:29:12.486Z,17.90
2018-06-13T17:31:40.922Z,17.90
2018-06-13T17:34:09.489Z,17.80
2018-06-13T17:36:38.021Z,17.70
2018-06-13T17:39:09.008Z,17.50
2018-06-13T17:44:05.920Z,17.60
2018-06-13T17:46:34.534Z,17.50
2018-06-13T17:49:03.018Z,17.50
2018-06-13T17:51:31.602Z,17.50
2018-06-13T17:54:00.234Z,17.50
2018-06-13T17:56:28.725Z,17.50
2018-06-13T17:58:57.187Z,17.50
2018-06-13T18:01:25.657Z,17.50
2018-06-13T18:03:54.286Z,17.50
2018-06-13T18:06:23.056Z,17.40
2018-06-13T18:08:51.524Z,17.30
2018-06-13T18:11:20.224Z,17.30
2018-06-13T18:13:49.153Z,17.30
2018-06-13T18:16:17.593Z,17.30
2018-06-13T18:18:46.202Z,17.10
2018-06-13T18:21:14.725Z,17.10
2018-06-13T18:23:43.177Z,17.00
2018-06-13T18:26:11.759Z,16.90
2018-06-13T18:28:40.373Z,16.90
2018-06-13T18:31:09.443Z,16.70
2018-06-13T18:33:38.342Z,16.70
2018-06-13T18:36:10.785Z,16.60
2018-06-13T18:38:41.492Z,16.50
2018-06-13T18:41:17.692Z,16.40
2018-06-13T18:43:51.152Z,16.40
2018-06-13T18:46:25.127Z,16.30
2018-06-13T18:48:56.394Z,16.20
2018-06-13T18:51:28.167Z,16.10
2018-06-13T18:54:07.816Z,15.90
2018-06-13T18:56:47.747Z,15.80
2018-06-13T19:02:03.583Z,15.60
2018-06-13T19:07:00.269Z,15.40
2018-06-13T19:09:28.829Z,15.30
2018-06-13T19:11:57.399Z,15.10
2018-06-13T19:14:26.399Z,15.10
2018-06-13T19:16:55.132Z,15.00
2018-06-13T19:19:23.681Z,14.80
2018-06-13T19:21:52.337Z,14.70
2018-06-13T19:24:20.837Z,14.60
2018-06-13T19:26:49.463Z,14.50
2018-06-13T19:29:17.957Z,14.30
2018-06-13T19:31:46.514Z,14.20
2018-06-13T19:34:15.118Z,14.00
2018-06-13T19:36:43.577Z,13.90
2018-06-13T19:39:12.172Z,13.80
2018-06-13T19:41:41.849Z,13.70
2018-06-13T19:44:10.393Z,13.50
2018-06-13T19:46:38.918Z,13.40
2018-06-13T19:49:07.554Z,13.30
2018-06-13T19:51:36.045Z,13.20
2018-06-13T19:54:09.885Z,13.20
2018-06-13T19:56:38.435Z,13.10
2018-06-13T19:59:07.721Z,13.00
2018-06-13T20:01:36.421Z,13.00
2018-06-13T20:04:10.233Z,12.90
2018-06-13T20:06:39.972Z,12.90
2018-06-13T20:09:10.333Z,13.00
2018-06-13T20:11:38.853Z,13.00
2018-06-13T20:14:13.119Z,12.80
2018-06-13T20:16:51.749Z,12.70
2018-06-13T20:19:25.700Z,12.60
2018-06-13T20:21:55.801Z,12.50
2018-06-13T20:24:24.345Z,12.30
2018-06-13T20:26:58.153Z,12.30
2018-06-13T20:29:31.989Z,12.20
2018-06-13T20:32:00.746Z,12.00
2018-06-13T20:34:35.187Z,11.90
2018-06-13T20:37:05.438Z,11.70
2018-06-13T20:39:34.416Z,11.60
2018-06-13T20:42:03.965Z,11.50
2018-06-13T20:44:32.392Z,11.40
2018-06-13T20:47:00.921Z,11.30
2018-06-13T20:49:29.853Z,11.30
2018-06-13T20:54:27.124Z,11.10
2018-06-13T20:56:55.749Z,11.10
2018-06-13T20:59:24.337Z,11.10
2018-06-13T21:01:53.905Z,11.20
2018-06-13T21:06:50.712Z,11.30
2018-06-13T21:09:19.166Z,11.20
2018-06-13T21:11:47.609Z,11.00
2018-06-13T21:14:16.236Z,11.00
2018-06-13T21:16:45.370Z,10.90
2018-06-13T21:19:14.079Z,11.00
2018-06-13T21:21:42.694Z,11.00
2018-06-13T21:26:39.418Z,10.90
2018-06-13T21:29:08.067Z,10.90
2018-06-13T21:31:36.532Z,11.00
2018-06-13T21:34:05.005Z,10.90
2018-06-13T21:36:34.528Z,10.90
2018-06-13T21:39:03.086Z,10.70
2018-06-13T21:44:00.285Z,10.50
2018-06-13T21:46:29.836Z,10.40
2018-06-13T21:48:58.373Z,10.20
2018-06-13T21:51:26.844Z,10.20
2018-06-13T21:53:55.411Z,10.10
2018-06-13T21:58:52.307Z,9.90
2018-06-13T22:01:20.806Z,9.90
2018-06-13T22:03:52.696Z,9.80
2018-06-13T22:06:21.355Z,9.80
2018-06-13T22:08:49.769Z,9.80
2018-06-13T22:11:18.241Z,9.80
2018-06-13T22:13:46.797Z,9.70
2018-06-13T22:16:15.279Z,9.70
2018-06-13T22:18:43.834Z,9.70
2018-06-13T22:21:12.363Z,9.60
2018-06-13T22:23:40.801Z,9.60
2018-06-13T22:26:09.438Z,9.60
2018-06-13T22:28:37.906Z,9.60
2018-06-13T22:31:06.400Z,9.70
2018-06-13T22:33:35.500Z,9.80
2018-06-13T22:36:03.965Z,9.90
2018-06-13T22:38:32.517Z,10.00
2018-06-13T22:41:00.992Z,9.90
2018-06-13T22:43:29.517Z,10.00
2018-06-13T22:45:58.036Z,9.90
2018-06-13T22:48:26.480Z,9.90
2018-06-13T22:50:54.912Z,9.80
2018-06-13T22:55:51.637Z,9.80
2018-06-13T22:58:20.120Z,9.70
2018-06-13T23:01:04.934Z,9.70
2018-06-13T23:03:33.695Z,9.60
2018-06-13T23:06:03.611Z,9.50
2018-06-13T23:08:33.190Z,9.50
2018-06-13T23:11:01.723Z,9.50
2018-06-13T23:13:30.193Z,9.40
2018-06-13T23:15:58.628Z,9.40
2018-06-13T23:18:28.064Z,9.20
2018-06-13T23:20:56.604Z,9.20
2018-06-13T23:23:25.469Z,9.20
2018-06-13T23:25:55.043Z,9.30
2018-06-13T23:28:23.758Z,9.20
2018-06-13T23:30:52.276Z,9.10
2018-06-13T23:33:20.712Z,9.10
2018-06-13T23:35:49.116Z,9.00
2018-06-13T23:38:17.680Z,9.00
2018-06-13T23:40:46.574Z,9.00
2018-06-13T23:45:43.359Z,8.90
2018-06-13T23:48:11.869Z,8.90
2018-06-13T23:50:40.657Z,8.90
2018-06-13T23:53:09.137Z,9.00
2018-06-13T23:55:37.752Z,9.00
2018-06-13T23:58:06.386Z,8.90
